• pl
  • eng

Awiacja
WIADOMOŚCI
ostatnia aktualizacja: 17.04.2020 19:04
Szanowni Państwo,

mając na uwadze sytuację związaną z pandemią wywołaną koronawirusem SARS-Cov-2 oraz w trosce o bezpieczeństwo Państwa oraz naszych pracowników, IMGW-PIB podjął decyzję o przeniesieniu kolejnej edycji Szkoły Meteorologii Lotniczej na przyszły rok. W tej chwili podanie dokładnego terminu szkoły nie jest możliwe, ale jak tylko będzie znany zostanie ogłoszony na naszych stronach internetowych, do których śledzenia serdecznie zapraszamy.

Kliknij na pogrubioną czerwoną nazwę, aby odkodować depeszę. 16:01 18.09.2020
  • WIND
  • SIGNIFICANT EURO
  • SIGNIFICANT
  • SIGMET
  • AIRMET
  • TAF FC
  • TAF FT
  • METAR GG30
  • METAR GG00


METAR EPBY 181400Z 30006KT 250V330 CAVOK 19/04 Q1028=

METAR EPGD 181400Z 29011KT CAVOK 17/02 Q1027 =

METAR EPKK 181400Z VRB05KT CAVOK 17/04 Q1028 =

METAR EPKT 181400Z 35007KT 300V030 CAVOK 16/03 Q1028 =

METAR EPLB 181400Z 32010KT 290V350 CAVOK 17/05 Q1026 =

METAR EPLL 181400Z 29007KT 260V340 CAVOK 17/03 Q1028 =

METAR EPMO 181400Z 29008KT 260V330 CAVOK 18/03 Q1027 =

METAR EPPO 181400Z 33004KT 280V030 CAVOK 18/01 Q1029 =

METAR EPRA 181400Z 30010KT 270V340 CAVOK 17/05 Q1027=

METAR EPRZ 181400Z 32010KT 280V340 CAVOK 17/04 Q1026 =

METAR EPSC 181400Z VRB04KT CAVOK 19/10 Q1028 =

METAR EPSY 181400Z 31009KT 270V340 CAVOK 17/06 Q1026=

METAR EPWA 181400Z 31009KT 280V340 CAVOK 18/05 Q1027 NOSIG=

METAR EPWR 181400Z 30004KT 260V340 CAVOK 18/03 Q1029 =

METAR EPZG 181400Z 13004KT 050V170 CAVOK 19/M01 Q1029 =
Awiacja.imgw.pl jest pogodowym serwisem informacyjnym
Instytutu Meteorologii i Gospodarki Wodnej Państwowego Instytutu Badawczego.
Copyright IMGW PIB 2009-2019© Wszelkie prawa zastrzeżone.